createdAt,value
2023-03-19T00:00:28.182Z,8.96
2023-03-19T00:01:10.003Z,9.09
2023-03-19T00:01:51.872Z,9.07
2023-03-19T00:02:33.837Z,9.18
2023-03-19T00:03:15.986Z,9.15
2023-03-19T00:03:57.713Z,9.08
2023-03-19T00:04:39.513Z,9.12
2023-03-19T00:05:21.588Z,9.23
2023-03-19T00:06:03.906Z,9.23
2023-03-19T00:06:45.843Z,9.20
2023-03-19T00:07:27.726Z,9.23
2023-03-19T00:08:09.442Z,9.27
2023-03-19T00:08:51.205Z,9.33
2023-03-19T00:09:33.048Z,9.32
2023-03-19T00:10:14.862Z,9.42
2023-03-19T00:10:56.519Z,9.40
2023-03-19T00:11:38.734Z,9.47
2023-03-19T00:12:20.417Z,9.44
2023-03-19T00:13:02.114Z,9.52
2023-03-19T00:13:43.804Z,9.49
2023-03-19T00:14:25.698Z,9.42
2023-03-19T00:15:09.177Z,9.42
2023-03-19T00:15:50.997Z,9.44
2023-03-19T00:16:32.911Z,9.41
2023-03-19T00:17:14.608Z,9.36
2023-03-19T00:17:56.619Z,9.38
2023-03-19T00:18:38.433Z,9.24
2023-03-19T00:19:20.671Z,9.19
2023-03-19T00:20:02.776Z,9.11
2023-03-19T00:20:44.809Z,8.97
2023-03-19T00:21:28.460Z,9.02
2023-03-19T00:22:11.914Z,8.95
2023-03-19T00:22:53.659Z,8.95
2023-03-19T00:23:36.359Z,9.05
2023-03-19T00:24:18.169Z,8.99
2023-03-19T00:24:59.895Z,8.97
2023-03-19T00:25:42.146Z,8.94
2023-03-19T00:26:23.847Z,8.96
2023-03-19T00:27:05.737Z,9.07
2023-03-19T00:27:47.533Z,9.05
2023-03-19T00:28:29.744Z,8.88
2023-03-19T00:29:12.769Z,8.94
2023-03-19T00:29:55.401Z,8.85
2023-03-19T00:30:37.200Z,8.72
2023-03-19T00:31:18.954Z,8.70
2023-03-19T00:32:01.233Z,8.67
2023-03-19T00:32:43.085Z,8.60
2023-03-19T00:33:25.727Z,8.64
2023-03-19T00:34:08.533Z,8.69
2023-03-19T00:34:50.972Z,8.82
2023-03-19T00:35:32.992Z,8.78
2023-03-19T00:36:16.362Z,8.94
2023-03-19T00:36:58.353Z,8.88
2023-03-19T00:37:40.543Z,8.94
2023-03-19T00:38:22.793Z,9.06
2023-03-19T00:39:05.433Z,9.07
2023-03-19T00:39:50.308Z,9.17
2023-03-19T00:40:33.518Z,9.19
2023-03-19T00:41:17.298Z,9.12
2023-03-19T00:41:59.094Z,9.03
2023-03-19T00:42:42.114Z,9.12
2023-03-19T00:43:23.888Z,9.08
2023-03-19T00:44:06.423Z,9.00
2023-03-19T00:44:48.181Z,9.13
2023-03-19T00:45:30.858Z,9.14
2023-03-19T00:46:13.751Z,9.04
2023-03-19T00:46:58.789Z,8.88
2023-03-19T00:47:40.840Z,8.79
2023-03-19T00:48:23.176Z,8.70
2023-03-19T00:49:04.943Z,8.70
2023-03-19T00:49:46.736Z,8.67
2023-03-19T00:50:28.550Z,8.52
2023-03-19T00:51:11.588Z,8.68
2023-03-19T00:51:53.285Z,8.73
2023-03-19T00:52:34.969Z,8.73
2023-03-19T00:53:17.066Z,8.74
2023-03-19T00:53:58.731Z,8.79
2023-03-19T00:54:40.553Z,8.86
2023-03-19T00:55:22.874Z,8.98
2023-03-19T00:56:05.724Z,8.93
2023-03-19T00:56:47.564Z,8.81
2023-03-19T00:57:29.360Z,9.01
2023-03-19T00:58:11.569Z,8.90
2023-03-19T00:58:53.462Z,8.95
2023-03-19T00:59:35.336Z,8.90
2023-03-19T01:00:19.367Z,8.83
2023-03-19T01:01:02.090Z,8.74
2023-03-19T01:01:44.094Z,8.71
2023-03-19T01:02:26.206Z,8.64
2023-03-19T01:03:07.937Z,8.57
2023-03-19T01:03:49.855Z,8.56
2023-03-19T01:04:31.862Z,8.46
2023-03-19T01:05:14.686Z,8.43
2023-03-19T01:05:58.619Z,8.52
2023-03-19T01:06:40.709Z,8.45
2023-03-19T01:07:22.594Z,8.48
2023-03-19T01:08:04.340Z,8.56
2023-03-19T01:08:46.304Z,8.69
2023-03-19T01:09:28.086Z,8.73
2023-03-19T01:10:10.930Z,8.71
2023-03-19T01:10:52.892Z,8.64
2023-03-19T01:11:34.813Z,8.62
2023-03-19T01:12:17.263Z,8.65
2023-03-19T01:12:58.985Z,8.47
2023-03-19T01:13:42.150Z,8.74
2023-03-19T01:14:24.528Z,8.77
2023-03-19T01:15:08.935Z,8.82
2023-03-19T01:15:53.662Z,8.84
2023-03-19T01:16:36.334Z,8.79
2023-03-19T01:17:18.603Z,8.77
2023-03-19T01:18:01.087Z,8.83
2023-03-19T01:18:43.208Z,8.83
2023-03-19T01:19:24.912Z,8.82
2023-03-19T01:20:15.508Z,8.81
2023-03-19T01:20:57.440Z,8.83
2023-03-19T01:21:39.622Z,8.84
2023-03-19T01:22:21.400Z,9.02
2023-03-19T01:23:08.959Z,8.97
2023-03-19T01:23:52.118Z,9.13
2023-03-19T01:24:35.264Z,9.11
2023-03-19T01:25:17.165Z,9.17
2023-03-19T01:26:08.478Z,9.09
2023-03-19T01:26:50.869Z,9.08
2023-03-19T01:27:46.177Z,9.08
2023-03-19T01:28:29.145Z,9.16
2023-03-19T01:29:11.457Z,9.09
2023-03-19T01:29:53.502Z,9.09
2023-03-19T01:30:51.833Z,9.21
2023-03-19T01:31:52.324Z,9.19
2023-03-19T01:32:56.961Z,9.25
2023-03-19T01:33:57.577Z,9.20
2023-03-19T01:34:54.250Z,9.19
2023-03-19T01:35:36.075Z,9.15
2023-03-19T01:36:18.442Z,9.09
2023-03-19T01:37:15.384Z,8.92
2023-03-19T01:37:58.307Z,8.90
2023-03-19T01:38:40.594Z,8.96
2023-03-19T01:39:28.684Z,8.94
2023-03-19T01:40:13.851Z,8.95
2023-03-19T01:40:56.333Z,8.97
2023-03-19T01:41:38.315Z,8.88
2023-03-19T01:43:12.487Z,9.13
2023-03-19T01:44:28.937Z,9.07
2023-03-19T01:45:37.902Z,9.36
2023-03-19T01:46:39.270Z,9.41
2023-03-19T01:47:43.297Z,9.45
2023-03-19T01:48:44.576Z,9.53
2023-03-19T01:49:31.118Z,9.45
2023-03-19T01:50:42.177Z,9.53
2023-03-19T01:51:46.502Z,9.53
2023-03-19T01:52:54.075Z,9.58
2023-03-19T01:54:00.864Z,9.48
2023-03-19T01:55:05.030Z,9.48
2023-03-19T01:56:14.506Z,9.58
2023-03-19T01:57:16.160Z,9.51
2023-03-19T01:58:17.890Z,9.39
2023-03-19T01:59:30.720Z,9.48
2023-03-19T02:00:39.323Z,9.53
2023-03-19T02:01:21.347Z,9.40
2023-03-19T02:02:25.185Z,9.51
2023-03-19T02:03:07.581Z,9.52
2023-03-19T02:04:07.593Z,9.48
2023-03-19T02:04:56.453Z,9.40
2023-03-19T02:05:41.475Z,9.23
2023-03-19T02:06:26.916Z,9.15
2023-03-19T02:07:11.326Z,9.16
2023-03-19T02:07:56.764Z,9.06
2023-03-19T02:08:39.466Z,8.98
2023-03-19T02:09:21.604Z,8.93
2023-03-19T02:10:08.611Z,8.76
2023-03-19T02:10:52.713Z,8.90
2023-03-19T02:11:34.549Z,8.82
2023-03-19T02:12:17.979Z,8.83
2023-03-19T02:12:59.819Z,8.70
2023-03-19T02:13:41.744Z,8.72
2023-03-19T02:14:24.025Z,8.79
2023-03-19T02:15:07.186Z,8.75
2023-03-19T02:15:51.037Z,8.78
2023-03-19T02:16:33.299Z,8.79
2023-03-19T02:17:15.871Z,8.77
2023-03-19T02:17:58.292Z,8.86
2023-03-19T02:18:40.729Z,8.80
2023-03-19T02:19:31.926Z,8.96
2023-03-19T02:20:39.415Z,9.08
2023-03-19T02:21:22.053Z,9.13
2023-03-19T02:22:05.229Z,9.17
2023-03-19T02:23:00.805Z,9.23
2023-03-19T02:24:18.087Z,9.26
2023-03-19T02:25:24.942Z,9.11
2023-03-19T02:26:09.218Z,9.19
2023-03-19T02:26:51.675Z,9.25
2023-03-19T02:27:34.311Z,9.12
2023-03-19T02:28:19.097Z,9.20
2023-03-19T02:29:04.106Z,9.25
2023-03-19T02:29:49.605Z,9.28
2023-03-19T02:30:34.373Z,9.18
2023-03-19T02:31:21.922Z,9.20
2023-03-19T02:32:03.952Z,9.19
2023-03-19T02:32:45.957Z,9.09
2023-03-19T02:33:27.838Z,9.06
2023-03-19T02:34:09.644Z,9.16
2023-03-19T02:34:51.627Z,9.20
2023-03-19T02:35:35.734Z,9.25
2023-03-19T02:36:20.254Z,9.17
2023-03-19T02:37:09.017Z,9.26
2023-03-19T02:37:51.236Z,9.34
2023-03-19T02:38:34.358Z,9.34
2023-03-19T02:39:23.571Z,9.31
2023-03-19T02:40:36.348Z,9.31
2023-03-19T02:41:19.011Z,9.21
2023-03-19T02:42:02.205Z,9.06
2023-03-19T02:42:46.283Z,9.08
2023-03-19T02:43:29.691Z,9.09
2023-03-19T02:44:12.647Z,9.08
2023-03-19T02:44:54.835Z,9.07
2023-03-19T02:45:36.591Z,9.07
2023-03-19T02:46:18.515Z,8.95
2023-03-19T02:47:00.456Z,8.95
2023-03-19T02:47:42.544Z,8.94
2023-03-19T02:48:24.966Z,8.98
2023-03-19T02:49:06.846Z,8.98
2023-03-19T02:49:48.683Z,8.87
2023-03-19T02:50:30.496Z,8.76
2023-03-19T02:51:13.491Z,8.83
2023-03-19T02:51:55.306Z,8.95
2023-03-19T02:52:37.301Z,8.96
2023-03-19T02:53:19.109Z,8.91
2023-03-19T02:54:01.011Z,8.92
2023-03-19T02:54:42.893Z,8.94
2023-03-19T02:55:24.967Z,9.02
2023-03-19T02:56:07.477Z,8.96
2023-03-19T02:56:49.354Z,8.89
2023-03-19T02:57:31.294Z,8.73
2023-03-19T02:58:13.129Z,8.65
2023-03-19T02:58:55.282Z,8.60
2023-03-19T02:59:37.167Z,8.62
2023-03-19T03:00:19.077Z,8.46
2023-03-19T03:01:01.675Z,8.39
2023-03-19T03:01:43.942Z,8.34
2023-03-19T03:02:26.343Z,8.38
2023-03-19T03:03:08.903Z,8.41
2023-03-19T03:03:50.818Z,8.41
2023-03-19T03:04:34.877Z,8.36
2023-03-19T03:05:16.683Z,8.35
2023-03-19T03:05:58.443Z,8.32
2023-03-19T03:06:40.686Z,8.18
2023-03-19T03:07:22.930Z,8.25
2023-03-19T03:08:05.093Z,8.10
2023-03-19T03:08:47.050Z,8.17
2023-03-19T03:09:28.745Z,8.13
2023-03-19T03:10:11.265Z,8.21
2023-03-19T03:10:52.950Z,8.14
2023-03-19T03:11:34.806Z,8.23
2023-03-19T03:12:16.558Z,8.20
2023-03-19T03:12:59.228Z,8.14
2023-03-19T03:13:41.554Z,8.11
2023-03-19T03:14:24.670Z,8.02
2023-03-19T03:15:08.586Z,8.06
2023-03-19T03:15:51.628Z,8.03
2023-03-19T03:16:33.566Z,8.02
2023-03-19T03:17:15.659Z,7.90
2023-03-19T03:17:57.502Z,8.02
2023-03-19T03:18:39.330Z,7.98
2023-03-19T03:19:21.741Z,7.84
2023-03-19T03:20:05.275Z,8.09
2023-03-19T03:20:47.410Z,8.14
2023-03-19T03:21:29.760Z,8.06
2023-03-19T03:22:11.853Z,8.14
2023-03-19T03:22:54.074Z,7.95
2023-03-19T03:23:36.755Z,8.13
2023-03-19T03:24:18.852Z,7.70
2023-03-19T03:25:01.318Z,8.09
2023-03-19T03:25:45.428Z,7.89
2023-03-19T03:26:27.237Z,7.90
2023-03-19T03:27:09.489Z,7.80
2023-03-19T03:27:52.103Z,7.85
2023-03-19T03:28:33.855Z,7.66
2023-03-19T03:29:15.651Z,7.60
2023-03-19T03:29:57.950Z,7.71
2023-03-19T03:30:39.664Z,7.61
2023-03-19T03:31:22.196Z,7.64
2023-03-19T03:32:06.798Z,7.62
2023-03-19T03:32:48.686Z,7.54
2023-03-19T03:33:30.737Z,7.44
2023-03-19T03:34:12.430Z,7.39
2023-03-19T03:34:54.157Z,7.53
2023-03-19T03:35:36.298Z,7.44
2023-03-19T03:36:18.335Z,7.46
2023-03-19T03:37:00.094Z,7.42
2023-03-19T03:37:42.312Z,7.42
2023-03-19T03:38:25.186Z,7.53
2023-03-19T03:39:06.882Z,7.50
2023-03-19T03:39:48.686Z,7.59
2023-03-19T03:40:30.849Z,7.69
2023-03-19T03:41:12.688Z,7.60
2023-03-19T03:41:54.806Z,7.70
2023-03-19T03:42:40.017Z,7.84
2023-03-19T03:43:23.416Z,7.81
2023-03-19T03:44:05.578Z,7.87
2023-03-19T03:44:49.860Z,7.94
2023-03-19T03:45:32.074Z,7.89
2023-03-19T03:46:14.290Z,7.90
2023-03-19T03:46:56.810Z,7.93
2023-03-19T03:47:39.547Z,7.88
2023-03-19T03:48:22.091Z,7.92
2023-03-19T03:49:04.510Z,7.89
2023-03-19T03:49:46.255Z,7.90
2023-03-19T03:50:28.477Z,7.96
2023-03-19T03:51:13.599Z,7.89
2023-03-19T03:51:55.683Z,7.96
2023-03-19T03:52:38.237Z,7.97
2023-03-19T03:53:20.343Z,7.95
2023-03-19T03:54:02.226Z,7.96
2023-03-19T03:54:44.289Z,7.92
2023-03-19T03:55:26.081Z,8.04
2023-03-19T03:56:08.261Z,8.00
2023-03-19T03:56:50.750Z,8.09
2023-03-19T03:57:32.539Z,8.00
2023-03-19T03:58:14.339Z,7.97
2023-03-19T03:58:56.528Z,7.86
2023-03-19T03:59:38.432Z,8.00
2023-03-19T04:00:20.605Z,7.92
2023-03-19T04:01:02.507Z,8.01
2023-03-19T04:01:45.678Z,7.92
2023-03-19T04:02:27.991Z,8.00
2023-03-19T04:03:10.353Z,7.92
2023-03-19T04:03:52.196Z,7.97
2023-03-19T04:04:34.363Z,7.92
2023-03-19T04:05:17.542Z,7.86
2023-03-19T04:05:59.334Z,7.88
2023-03-19T04:06:41.435Z,7.87
2023-03-19T04:07:31.243Z,7.92
2023-03-19T04:08:13.975Z,7.84
2023-03-19T04:08:55.858Z,7.71
2023-03-19T04:09:37.971Z,7.86
2023-03-19T04:10:19.995Z,7.92
2023-03-19T04:11:06.856Z,7.95
2023-03-19T04:11:51.337Z,7.98
2023-03-19T04:12:34.873Z,8.02
2023-03-19T04:13:16.672Z,8.06
2023-03-19T04:13:58.888Z,8.03
2023-03-19T04:14:43.462Z,8.13
2023-03-19T04:15:25.375Z,8.13
2023-03-19T04:16:11.011Z,8.20
2023-03-19T04:16:53.011Z,8.20
2023-03-19T04:17:35.702Z,8.30
2023-03-19T04:18:17.495Z,8.37
2023-03-19T04:18:59.191Z,8.34
2023-03-19T04:19:41.128Z,8.41
2023-03-19T04:20:23.681Z,8.42
2023-03-19T04:21:06.521Z,8.51
2023-03-19T04:21:48.308Z,8.51
2023-03-19T04:22:31.720Z,8.53
2023-03-19T04:23:14.464Z,8.53
2023-03-19T04:23:56.239Z,8.45
2023-03-19T04:24:39.183Z,8.46
2023-03-19T04:25:20.926Z,8.50
2023-03-19T04:26:06.840Z,8.58
2023-03-19T04:26:49.801Z,8.59
2023-03-19T04:27:32.524Z,8.61
2023-03-19T04:28:14.365Z,8.72
2023-03-19T04:28:58.086Z,8.76
2023-03-19T04:29:40.219Z,8.83
2023-03-19T04:30:22.545Z,8.84
2023-03-19T04:31:09.287Z,8.86
2023-03-19T04:31:54.618Z,8.87
2023-03-19T04:32:36.975Z,8.73
2023-03-19T04:33:19.220Z,8.91
2023-03-19T04:34:01.049Z,8.80
2023-03-19T04:34:42.925Z,8.98
2023-03-19T04:35:24.854Z,8.94
2023-03-19T04:36:07.370Z,9.07
2023-03-19T04:36:51.854Z,9.02
2023-03-19T04:37:33.846Z,8.98
2023-03-19T04:38:15.750Z,9.09
2023-03-19T04:38:58.309Z,9.12
2023-03-19T04:39:40.667Z,9.03
2023-03-19T04:40:22.594Z,9.07
2023-03-19T04:41:05.016Z,8.91
2023-03-19T04:41:50.311Z,9.00
2023-03-19T04:42:41.433Z,9.08
2023-03-19T04:43:28.584Z,9.00
2023-03-19T04:44:10.419Z,9.09
2023-03-19T04:44:54.862Z,8.98
2023-03-19T04:45:41.027Z,8.95
2023-03-19T04:46:23.117Z,8.97
2023-03-19T04:47:05.276Z,8.96
2023-03-19T04:47:59.202Z,9.00
2023-03-19T04:48:41.819Z,9.12
2023-03-19T04:49:24.541Z,9.12
2023-03-19T04:50:08.261Z,9.19
2023-03-19T04:50:53.149Z,9.15
2023-03-19T04:51:35.148Z,9.15
2023-03-19T04:52:16.913Z,9.20
2023-03-19T04:52:58.797Z,8.83
2023-03-19T04:53:41.312Z,9.25
2023-03-19T04:54:24.333Z,9.18
2023-03-19T04:55:07.901Z,9.12
2023-03-19T04:56:02.568Z,9.21
2023-03-19T04:56:44.760Z,9.22
2023-03-19T04:57:27.053Z,9.11
2023-03-19T04:58:10.998Z,9.11
2023-03-19T04:58:53.691Z,9.20
2023-03-19T04:59:35.590Z,9.23
2023-03-19T05:00:17.840Z,9.14
2023-03-19T05:01:01.723Z,9.19
2023-03-19T05:02:03.776Z,9.27
2023-03-19T05:02:47.541Z,9.19
2023-03-19T05:03:29.674Z,9.28
2023-03-19T05:04:12.308Z,9.21
2023-03-19T05:04:54.482Z,9.25
2023-03-19T05:05:36.410Z,9.18
2023-03-19T05:06:22.029Z,9.31
2023-03-19T05:07:04.132Z,9.17
2023-03-19T05:07:46.427Z,9.30
2023-03-19T05:08:28.942Z,9.27
2023-03-19T05:09:10.895Z,9.31
2023-03-19T05:09:52.758Z,9.32
2023-03-19T05:10:37.378Z,9.31
2023-03-19T05:11:19.673Z,9.23
2023-03-19T05:12:21.879Z,9.19
2023-03-19T05:13:07.165Z,9.29
2023-03-19T05:13:53.165Z,9.20
2023-03-19T05:14:34.949Z,9.02
2023-03-19T05:15:22.753Z,9.11
2023-03-19T05:16:14.709Z,9.10
2023-03-19T05:16:57.051Z,9.03
2023-03-19T05:17:40.323Z,9.14
2023-03-19T05:18:36.408Z,9.02
2023-03-19T05:19:18.694Z,9.11
2023-03-19T05:20:01.461Z,9.02
2023-03-19T05:20:45.733Z,9.07
2023-03-19T05:21:37.807Z,8.93
2023-03-19T05:22:20.336Z,8.92
2023-03-19T05:23:02.864Z,8.82
2023-03-19T05:23:54.843Z,8.81
2023-03-19T05:24:36.750Z,8.80
2023-03-19T05:25:19.489Z,8.89
2023-03-19T05:26:01.844Z,8.84
2023-03-19T05:27:07.596Z,8.73
2023-03-19T05:28:12.601Z,8.82
2023-03-19T05:28:54.378Z,8.80
2023-03-19T05:29:44.532Z,8.75
2023-03-19T05:30:43.580Z,8.69
2023-03-19T05:31:45.567Z,8.76
2023-03-19T05:32:28.140Z,8.67
2023-03-19T05:33:10.183Z,8.63
2023-03-19T05:33:55.588Z,8.71
2023-03-19T05:34:37.751Z,8.72
2023-03-19T05:35:19.930Z,8.80
2023-03-19T05:36:01.965Z,8.72
2023-03-19T05:37:01.063Z,8.88
2023-03-19T05:37:43.284Z,8.91
2023-03-19T05:38:25.354Z,8.97
2023-03-19T05:39:11.653Z,9.02
2023-03-19T05:39:56.129Z,8.90
2023-03-19T05:40:37.958Z,8.92
2023-03-19T05:41:33.236Z,9.10
2023-03-19T05:42:18.531Z,9.08
2023-03-19T05:43:00.742Z,9.13
2023-03-19T05:43:44.200Z,9.17
2023-03-19T05:44:34.719Z,9.18
2023-03-19T05:45:25.727Z,9.07
2023-03-19T05:46:10.480Z,9.08
2023-03-19T05:46:53.220Z,9.05
2023-03-19T05:47:37.146Z,9.01
2023-03-19T05:48:18.959Z,8.95
2023-03-19T05:49:04.538Z,8.95
2023-03-19T05:49:46.293Z,9.02
2023-03-19T05:50:28.825Z,9.02
2023-03-19T05:51:25.654Z,9.15
2023-03-19T05:52:07.931Z,9.07
2023-03-19T05:52:49.901Z,8.61
2023-03-19T05:53:31.863Z,9.11
2023-03-19T05:54:49.435Z,8.79
2023-03-19T05:55:50.016Z,8.99
2023-03-19T05:56:32.843Z,8.91
2023-03-19T05:57:34.796Z,8.96
2023-03-19T05:58:31.756Z,8.91
2023-03-19T05:59:14.131Z,8.81
2023-03-19T05:59:59.369Z,8.91
2023-03-19T06:00:56.661Z,9.00
2023-03-19T06:01:38.861Z,8.94
2023-03-19T06:02:20.816Z,8.98
2023-03-19T06:03:04.084Z,8.88
2023-03-19T06:04:05.500Z,9.02
2023-03-19T06:04:47.822Z,9.05
2023-03-19T06:05:31.962Z,8.99
2023-03-19T06:06:20.452Z,8.99
2023-03-19T06:07:07.201Z,9.08
2023-03-19T06:07:50.347Z,9.07
2023-03-19T06:08:53.025Z,8.97
2023-03-19T06:09:49.161Z,9.02
2023-03-19T06:10:30.987Z,8.97
2023-03-19T06:11:15.937Z,8.96
2023-03-19T06:12:00.893Z,9.01
2023-03-19T06:13:05.496Z,9.00
2023-03-19T06:13:53.773Z,9.07
2023-03-19T06:14:37.616Z,9.12
2023-03-19T06:15:39.627Z,9.21
2023-03-19T06:16:28.550Z,9.22
2023-03-19T06:17:11.287Z,9.24
2023-03-19T06:17:53.585Z,9.17
2023-03-19T06:18:35.622Z,9.33
2023-03-19T06:19:22.825Z,9.42
2023-03-19T06:20:05.200Z,9.43
2023-03-19T06:20:48.199Z,9.56
2023-03-19T06:21:31.607Z,9.57
2023-03-19T06:22:16.799Z,9.59
2023-03-19T06:22:58.603Z,9.63
2023-03-19T06:23:40.657Z,9.62
2023-03-19T06:24:23.659Z,9.52
2023-03-19T06:25:06.675Z,9.72
2023-03-19T06:25:54.225Z,9.62
2023-03-19T06:26:38.428Z,9.67
2023-03-19T06:27:27.385Z,9.71
2023-03-19T06:28:21.628Z,9.67
2023-03-19T06:29:04.386Z,9.64
2023-03-19T06:29:46.607Z,9.62
2023-03-19T06:30:36.009Z,9.62
2023-03-19T06:31:22.139Z,9.46
2023-03-19T06:32:10.170Z,9.58
2023-03-19T06:32:55.132Z,9.60
2023-03-19T06:33:38.076Z,9.62
2023-03-19T06:34:20.004Z,9.61
2023-03-19T06:35:02.981Z,9.34
2023-03-19T06:35:44.787Z,9.73
2023-03-19T06:36:27.102Z,9.68
2023-03-19T06:37:09.152Z,9.78
2023-03-19T06:37:52.400Z,9.75
2023-03-19T06:38:35.848Z,9.70
2023-03-19T06:39:17.605Z,9.56
2023-03-19T06:40:00.620Z,9.69
2023-03-19T06:40:42.627Z,9.75
2023-03-19T06:41:25.117Z,9.75
2023-03-19T06:42:08.413Z,9.73
2023-03-19T06:42:50.813Z,9.68
2023-03-19T06:43:36.983Z,9.77
2023-03-19T06:44:19.005Z,9.75
2023-03-19T06:45:01.387Z,9.69
2023-03-19T06:45:43.032Z,9.67
2023-03-19T06:46:24.860Z,9.65
2023-03-19T06:47:08.558Z,9.63
2023-03-19T06:47:53.546Z,9.68
2023-03-19T06:48:35.719Z,9.75
2023-03-19T06:49:17.980Z,9.65
2023-03-19T06:50:00.907Z,9.71
2023-03-19T06:50:42.810Z,9.72
2023-03-19T06:51:27.665Z,9.73
2023-03-19T06:52:09.547Z,9.63
2023-03-19T06:52:51.228Z,9.72
2023-03-19T06:53:33.290Z,9.69
2023-03-19T06:54:14.949Z,9.77
2023-03-19T06:54:56.774Z,9.79
2023-03-19T06:55:38.798Z,9.75
2023-03-19T06:56:21.038Z,9.84
2023-03-19T06:57:02.892Z,9.81
2023-03-19T06:57:48.530Z,9.88
2023-03-19T06:58:30.305Z,9.78
2023-03-19T06:59:14.261Z,9.90
2023-03-19T06:59:56.276Z,9.96
2023-03-19T07:00:38.010Z,9.95
2023-03-19T07:01:19.739Z,9.99
2023-03-19T07:02:02.229Z,10.04
2023-03-19T07:02:44.769Z,10.16
2023-03-19T07:03:26.468Z,10.14
2023-03-19T07:04:09.188Z,10.19
2023-03-19T07:04:50.927Z,10.42
2023-03-19T07:05:32.821Z,10.32
2023-03-19T07:06:14.748Z,10.37
2023-03-19T07:06:56.701Z,10.51
2023-03-19T07:07:38.586Z,10.43
2023-03-19T07:08:20.693Z,10.32
2023-03-19T07:09:03.356Z,10.51
2023-03-19T07:09:45.433Z,10.46
2023-03-19T07:10:27.839Z,10.49
2023-03-19T07:11:09.912Z,10.53
2023-03-19T07:11:51.549Z,10.53
2023-03-19T07:12:33.335Z,10.51
2023-03-19T07:13:15.435Z,10.56
2023-03-19T07:13:57.201Z,10.50
2023-03-19T07:14:38.872Z,10.46
2023-03-19T07:15:21.529Z,10.50
2023-03-19T07:16:03.510Z,10.56
2023-03-19T07:16:45.619Z,10.56
2023-03-19T07:17:27.454Z,10.54
2023-03-19T07:18:09.264Z,10.53
2023-03-19T07:18:50.927Z,10.54
2023-03-19T07:19:32.514Z,10.59
2023-03-19T07:20:14.589Z,10.59
2023-03-19T07:20:56.310Z,10.60
2023-03-19T07:21:38.050Z,10.64
2023-03-19T07:22:20.144Z,10.76
2023-03-19T07:23:02.049Z,10.76
2023-03-19T07:23:43.792Z,10.81
2023-03-19T07:24:25.559Z,10.90
2023-03-19T07:25:07.805Z,10.98
2023-03-19T07:25:49.692Z,11.04
2023-03-19T07:26:31.552Z,11.09
2023-03-19T07:27:13.389Z,11.08
2023-03-19T07:27:56.175Z,11.20
2023-03-19T07:28:38.034Z,11.23
2023-03-19T07:29:19.904Z,11.22
2023-03-19T07:30:01.756Z,11.35
2023-03-19T07:30:43.439Z,11.36
2023-03-19T07:31:25.321Z,11.32
2023-03-19T07:32:07.716Z,11.44
2023-03-19T07:32:49.755Z,11.52
2023-03-19T07:33:34.495Z,11.52
2023-03-19T07:34:16.233Z,11.59
2023-03-19T07:34:58.088Z,11.65
2023-03-19T07:35:39.810Z,11.68
2023-03-19T07:36:22.054Z,11.71
2023-03-19T07:37:03.752Z,11.74
2023-03-19T07:37:45.456Z,11.79
2023-03-19T07:38:27.155Z,11.81
2023-03-19T07:39:08.925Z,11.76
2023-03-19T07:39:52.963Z,11.71
2023-03-19T07:40:34.912Z,11.81
2023-03-19T07:41:17.394Z,11.90
2023-03-19T07:41:59.170Z,11.91
2023-03-19T07:42:41.631Z,11.96
2023-03-19T07:43:24.646Z,12.00
2023-03-19T07:44:06.674Z,12.03
2023-03-19T07:44:49.606Z,12.02
2023-03-19T07:45:31.597Z,12.07
2023-03-19T07:46:13.928Z,12.18
2023-03-19T07:46:55.817Z,12.26
2023-03-19T07:47:37.778Z,12.32
2023-03-19T07:48:19.999Z,12.36
2023-03-19T07:49:01.813Z,12.34
2023-03-19T07:49:43.628Z,12.40
2023-03-19T07:50:25.574Z,12.41
2023-03-19T07:51:07.367Z,12.35
2023-03-19T07:51:49.364Z,12.47
2023-03-19T07:52:31.366Z,12.43
2023-03-19T07:53:13.357Z,12.52
2023-03-19T07:53:55.265Z,12.54
2023-03-19T07:54:37.313Z,12.63
2023-03-19T07:55:19.117Z,12.68
2023-03-19T07:56:00.847Z,12.76
2023-03-19T07:56:42.862Z,12.79
2023-03-19T07:57:25.888Z,12.83
2023-03-19T07:58:07.956Z,12.90
2023-03-19T07:58:49.733Z,13.03
2023-03-19T07:59:31.465Z,12.95
2023-03-19T08:00:13.531Z,13.01
2023-03-19T08:00:55.599Z,13.06
2023-03-19T08:01:37.412Z,13.02
2023-03-19T08:02:22.339Z,13.07
2023-03-19T08:03:04.903Z,13.13
2023-03-19T08:03:48.460Z,13.33
2023-03-19T08:04:30.602Z,13.35
2023-03-19T08:05:12.712Z,13.49
2023-03-19T08:05:54.454Z,13.73
2023-03-19T08:06:36.206Z,13.82
2023-03-19T08:07:18.073Z,13.83
2023-03-19T08:07:59.766Z,13.89
2023-03-19T08:08:41.767Z,13.89
2023-03-19T08:09:23.431Z,13.83
2023-03-19T08:10:05.607Z,13.87
2023-03-19T08:10:48.160Z,13.98
2023-03-19T08:11:30.183Z,14.12
2023-03-19T08:12:12.091Z,14.36
2023-03-19T08:12:54.186Z,14.32
2023-03-19T08:13:36.053Z,14.25
2023-03-19T08:14:22.375Z,14.25
2023-03-19T08:15:04.389Z,14.28
2023-03-19T08:15:46.269Z,14.12
2023-03-19T08:16:28.013Z,14.32
2023-03-19T08:17:09.848Z,14.28
2023-03-19T08:17:58.561Z,14.43
2023-03-19T08:18:40.547Z,14.51
2023-03-19T08:19:23.156Z,14.59
2023-03-19T08:20:14.354Z,14.62
2023-03-19T08:20:55.970Z,14.66
2023-03-19T08:21:38.213Z,14.75
2023-03-19T08:22:19.898Z,14.84
2023-03-19T08:23:01.681Z,14.75
2023-03-19T08:23:43.479Z,14.75
2023-03-19T08:24:25.407Z,15.01
2023-03-19T08:25:07.908Z,14.99
2023-03-19T08:25:51.916Z,15.12
2023-03-19T08:26:33.620Z,15.32
2023-03-19T08:27:15.265Z,15.53
2023-03-19T08:27:57.005Z,15.39
2023-03-19T08:28:38.818Z,15.49
2023-03-19T08:29:20.973Z,15.48
2023-03-19T08:30:04.886Z,15.43
2023-03-19T08:30:46.580Z,15.44
2023-03-19T08:31:28.274Z,15.36
2023-03-19T08:32:10.267Z,15.36
2023-03-19T08:32:52.150Z,15.24
2023-03-19T08:33:33.959Z,15.35
2023-03-19T08:34:15.744Z,15.50
2023-03-19T08:34:57.455Z,15.56
2023-03-19T08:35:39.390Z,15.62
2023-03-19T08:36:21.258Z,15.67
2023-03-19T08:37:02.942Z,15.66
2023-03-19T08:37:44.800Z,15.95
2023-03-19T08:38:26.525Z,16.30
2023-03-19T08:39:08.624Z,16.72
2023-03-19T08:39:52.174Z,16.91
2023-03-19T08:40:34.140Z,16.85
2023-03-19T08:41:16.148Z,16.87
2023-03-19T08:41:58.022Z,17.17
2023-03-19T08:42:44.460Z,17.76
2023-03-19T08:43:26.829Z,18.46
2023-03-19T08:44:08.549Z,18.96
2023-03-19T08:44:50.732Z,19.52
2023-03-19T08:45:32.663Z,19.77
2023-03-19T08:46:14.763Z,19.99
2023-03-19T08:46:56.549Z,20.01
2023-03-19T08:47:38.650Z,19.91
2023-03-19T08:48:20.328Z,19.76
2023-03-19T08:49:02.163Z,19.77
2023-03-19T08:49:44.150Z,19.91
2023-03-19T08:50:26.186Z,19.78
2023-03-19T08:51:09.651Z,19.89
2023-03-19T08:51:51.400Z,19.98
2023-03-19T08:52:33.615Z,20.16
2023-03-19T08:53:15.465Z,20.41
2023-03-19T08:53:57.273Z,20.34
2023-03-19T08:54:38.971Z,19.91
2023-03-19T08:55:20.733Z,19.51
2023-03-19T08:56:04.997Z,19.64
2023-03-19T08:56:46.757Z,19.65
2023-03-19T08:57:30.389Z,19.53
2023-03-19T08:58:12.004Z,19.63
2023-03-19T08:58:55.982Z,19.73
2023-03-19T08:59:37.711Z,19.73
2023-03-19T09:00:19.940Z,19.75
2023-03-19T09:01:07.723Z,19.46
2023-03-19T09:01:53.206Z,19.56
2023-03-19T09:02:35.040Z,20.10
2023-03-19T09:03:17.842Z,20.61
2023-03-19T09:03:59.553Z,20.98
2023-03-19T09:04:42.277Z,21.26
2023-03-19T09:05:24.356Z,21.44
2023-03-19T09:06:08.926Z,21.23
2023-03-19T09:06:51.618Z,20.91
2023-03-19T09:07:33.408Z,20.61
2023-03-19T09:08:15.103Z,20.71
2023-03-19T09:08:56.912Z,20.73
2023-03-19T09:09:39.403Z,21.04
2023-03-19T09:10:21.154Z,21.27
2023-03-19T09:11:04.068Z,21.58
2023-03-19T09:11:46.148Z,21.92
2023-03-19T09:12:28.109Z,22.27
2023-03-19T09:13:09.802Z,22.55
2023-03-19T09:13:51.599Z,22.86
2023-03-19T09:14:34.847Z,23.27
2023-03-19T09:15:17.034Z,23.57
2023-03-19T09:15:58.909Z,23.94
2023-03-19T09:16:40.643Z,24.19
2023-03-19T09:17:22.331Z,24.55
2023-03-19T09:18:04.107Z,24.75
2023-03-19T09:18:46.056Z,25.02
2023-03-19T09:19:28.137Z,25.29
2023-03-19T09:20:10.405Z,25.53
2023-03-19T09:20:53.781Z,25.71
2023-03-19T09:21:36.515Z,25.81
2023-03-19T09:22:18.227Z,25.79
2023-03-19T09:22:59.933Z,25.80
2023-03-19T09:23:41.568Z,25.57
2023-03-19T09:24:23.209Z,25.33
2023-03-19T09:25:05.429Z,25.02
2023-03-19T09:25:47.061Z,24.73
2023-03-19T09:26:29.073Z,24.37
2023-03-19T09:27:10.975Z,24.17
2023-03-19T09:27:52.661Z,23.96
2023-03-19T09:28:35.014Z,23.71
2023-03-19T09:29:16.816Z,23.64
2023-03-19T09:29:58.579Z,23.54
2023-03-19T09:30:40.296Z,23.39
2023-03-19T09:31:22.232Z,23.43
2023-03-19T09:32:04.422Z,23.34
2023-03-19T09:32:46.492Z,23.33
2023-03-19T09:33:28.217Z,23.18
2023-03-19T09:34:09.954Z,23.15
2023-03-19T09:34:51.617Z,23.25
2023-03-19T09:35:33.791Z,23.15
2023-03-19T09:36:16.080Z,22.93
2023-03-19T09:36:57.913Z,22.67
2023-03-19T09:37:39.949Z,22.67
2023-03-19T09:38:22.469Z,22.33
2023-03-19T09:39:06.223Z,21.69
2023-03-19T09:39:48.010Z,21.56
2023-03-19T09:40:38.237Z,21.63
2023-03-19T09:41:29.464Z,21.76
2023-03-19T09:42:11.159Z,22.06